メインページ
METAR-TAF:

METAR-TAF

空港 :

石見空港

萩, 日本

緯度: 34-40N, 経度: 131-48E, 海抜: 54m

現時点の気象観測

当レポートは23分前の07:00(UTC)に作成
の風 4kt、北西から東/北東の間で変化する
気温 27°C
湿度 74%
気圧 1007 hPa
視程10km以上
高度3000ftの雲はほとんどない
高度5000ftの雲は散在している
千切れ雲あり

METAR: RJOW 200700Z 36004KT 310V060 9999 FEW030 SCT050 BKN/// 27/22 Q1007

時間: 16:23 (07:23 UTC)


TAF: 見つかりません

4,000以上の空港の気象観測と天気予報(METAR報とTAF報)

利用可能な観測所は地図上に黄色い丸と赤い丸で示す。

丸の上にカーソルを重ねると観測所名を参照できる。

次にクリックすると気象観測と天気予報を参照できる。

マップの切り替え:黒色「×」印の緑ボタンをクリックして拡大、「-」印の緑ボタンをクリックして縮小、緑色の三角印をクリックして隣りの地図に切り替え


METAR-TAF: